1923 NOT_NAMED (1923239N20116)


IBTrACS version v04r00. Visit IBTrACS website for data access.
Please direct all questions to the IBTrACS Q and A forum

Storm track - Intensity - Wind Radii - Intensity Data - Source Data - All data

Summary Information

Storm ID 1923239N20116
Start Aug 26 22Z
Landfall Aug 28 06Z
End Aug 28 22Z
ATCF IDs
Track status Best track data.

Storm track plot

Map of storm track

Intensity plots

No Intensity information for this storm


Radial wind information

No radial wind information for this storm


Position and Intensity Table

BASIN ISO_TIME_________ NATURE LAT LON
degrees north degrees east
WP 1923-08-26 22:00:00 NR 20.00 115.80
WP 1923-08-27 00:00:00 NR 20.14 115.77
WP 03:00:00 NR 20.34 115.71
WP 06:00:00 NR 20.54 115.66
WP 09:00:00 NR 20.74 115.62
WP 10:00:00 NR 20.80 115.60
WP 12:00:00 NR 20.92 115.57
WP 15:00:00 NR 21.11 115.52
WP 18:00:00 NR 21.33 115.44
WP 21:00:00 NR 21.60 115.34
WP 22:00:00 NR 21.70 115.30
WP 1923-08-28 00:00:00 NR 21.94 115.20
WP 03:00:00 NR 22.36 115.02
WP 06:00:00 NR 22.81 114.81
WP 09:00:00 NR 23.26 114.58
WP 10:00:00 NR 23.40 114.50
WP 12:00:00 NR 23.68 114.34
WP 15:00:00 NR 24.07 114.09
WP 18:00:00 NR 24.43 113.84
WP 21:00:00 NR 24.78 113.59
WP 22:00:00 NR 24.90 113.50

Source Information

Agency Information
USA
TOKYO
CMA
HKO
NEWDELHI
REUNION
BOM
NADI
WELLINGTON
DS824
TD9636 cons_worldwide_trop_cyclone_18710101-19891231-003:Line=7019
TD9635
NEUMANN
MLC

All available IBTrACS Data

SEASON BASIN SUBBASIN ISO_TIME_________ NATURE LAT LON DIST2LAND LANDFALL IFLAG USA SSHS TD9636 LAT TD9636 LON TD9636 STAGE STORM SPEED STORM DIR
Year degrees north degrees east km km 1 degrees north degrees east kts degrees
1923 WP MM 1923-08-26 22:00:00 NR 20.00 115.80 294 284 __________O___ -1 20.00 115.80 4 4 345
1923 WP MM 1923-08-27 00:00:00 NR 20.14 115.77 284 259 __________P___ -1 20.14 115.77 4 4 347
1923 WP MM 03:00:00 NR 20.34 115.71 259 238 __________P___ -1 20.34 115.71 4 4 347
1923 WP MM 06:00:00 NR 20.54 115.66 238 213 __________P___ -1 20.54 115.66 4 4 347
1923 WP MM 09:00:00 NR 20.74 115.62 213 203 __________P___ -1 20.74 115.62 4 4 348
1923 WP MM 10:00:00 NR 20.80 115.60 203 192 __________O___ -1 20.80 115.60 4 4 349
1923 WP MM 12:00:00 NR 20.92 115.57 192 168 __________P___ -1 20.92 115.57 4 4 346
1923 WP MM 15:00:00 NR 21.11 115.52 168 143 __________P___ -1 21.11 115.52 4 4 344
1923 WP MM 18:00:00 NR 21.33 115.44 143 108 __________P___ -1 21.33 115.44 4 5 341
1923 WP MM 21:00:00 NR 21.60 115.34 108 98 __________P___ -1 21.60 115.34 4 6 340
1923 WP MM 22:00:00 NR 21.70 115.30 98 73 __________O___ -1 21.70 115.30 4 7 340
1923 WP MM 1923-08-28 00:00:00 NR 21.94 115.20 73 15 __________P___ -1 21.94 115.20 4 9 339
1923 WP MM 03:00:00 NR 22.36 115.02 15 0 __________P___ -1 22.36 115.02 4 9 337
1923 WP MM 06:00:00 NR 22.81 114.81 0 0 __________P___ -1 22.81 114.81 4 10 336
1923 WP MM 09:00:00 NR 23.26 114.58 0 0 __________P___ -1 23.26 114.58 4 10 334
1923 WP MM 10:00:00 NR 23.40 114.50 0 0 __________O___ -1 23.40 114.50 2 10 332
1923 WP MM 12:00:00 NR 23.68 114.34 0 0 __________P___ -1 23.68 114.34 2 9 331
1923 WP MM 15:00:00 NR 24.07 114.09 0 0 __________P___ -1 24.07 114.09 2 9 329
1923 WP MM 18:00:00 NR 24.43 113.84 0 0 __________P___ -1 24.43 113.84 2 9 327
1923 WP MM 21:00:00 NR 24.78 113.59 0 0 __________P___ -1 24.78 113.59 2 8 327
1923 WP MM 22:00:00 NR 24.90 113.50 0 __________O___ -1 24.90 113.50 2 8 324